createdAt,value
2022-08-05T00:01:35.648Z,99468.91
2022-08-05T00:04:15.018Z,99469.50
2022-08-05T00:06:41.636Z,99476.72
2022-08-05T00:09:12.752Z,99473.38
2022-08-05T00:11:48.369Z,99473.00
2022-08-05T00:14:17.166Z,99472.53
2022-08-05T00:16:52.885Z,99481.44
2022-08-05T00:19:22.609Z,99475.53
2022-08-05T00:21:50.008Z,99491.56
2022-08-05T00:24:24.230Z,99477.34
2022-08-05T00:26:52.873Z,99489.16
2022-08-05T00:29:22.863Z,99483.97
2022-08-05T00:32:10.679Z,99493.50
2022-08-05T00:34:55.793Z,99499.28
2022-08-05T00:37:35.309Z,99495.91
2022-08-05T00:40:14.307Z,99488.66
2022-08-05T00:42:48.265Z,99488.31
2022-08-05T00:45:16.619Z,99488.56
2022-08-05T00:48:05.420Z,99489.28
2022-08-05T00:50:32.650Z,99488.66
2022-08-05T00:52:59.263Z,99495.19
2022-08-05T00:55:34.104Z,99487.59
2022-08-05T00:58:11.252Z,99503.00
2022-08-05T01:00:39.068Z,99494.84
2022-08-05T01:03:07.956Z,99497.00
2022-08-05T01:05:35.156Z,99494.13
2022-08-05T01:08:40.391Z,99495.81
2022-08-05T01:10:52.940Z,99492.53
2022-08-05T01:13:58.471Z,99504.84
2022-08-05T01:16:44.206Z,99488.09
2022-08-05T01:19:46.314Z,99492.53
2022-08-05T01:22:42.919Z,99488.59
2022-08-05T01:25:40.811Z,99480.03
2022-08-05T01:28:15.994Z,99493.28
2022-08-05T01:30:55.353Z,99488.84
2022-08-05T01:33:25.265Z,99481.72
2022-08-05T01:35:57.555Z,99485.59
2022-08-05T01:38:29.144Z,99469.81
2022-08-05T01:40:59.876Z,99453.03
2022-08-05T01:43:28.936Z,99465.22
2022-08-05T01:45:57.813Z,99469.81
2022-08-05T01:48:29.295Z,99475.00
2022-08-05T01:50:56.821Z,99478.47
2022-08-05T01:53:57.582Z,99474.72
2022-08-05T01:56:11.669Z,99477.16
2022-08-05T01:58:44.612Z,99487.63
2022-08-05T02:01:13.740Z,99487.63
2022-08-05T02:03:44.364Z,99492.47
2022-08-05T02:06:37.344Z,99491.28
2022-08-05T02:08:59.261Z,99506.06
2022-08-05T02:11:33.226Z,99507.06
2022-08-05T02:14:04.865Z,99517.53
2022-08-05T02:16:52.777Z,99515.00
2022-08-05T02:19:34.768Z,99512.59
2022-08-05T02:22:26.583Z,99509.09
2022-08-05T02:25:00.056Z,99515.00
2022-08-05T02:27:30.211Z,99510.19
2022-08-05T02:30:14.030Z,99516.91
2022-08-05T02:32:42.531Z,99505.13
2022-08-05T02:35:14.593Z,99502.94
2022-08-05T02:37:54.003Z,99501.75
2022-08-05T02:40:21.770Z,99494.28
2022-08-05T02:42:53.092Z,99497.88
2022-08-05T02:45:24.205Z,99500.06
2022-08-05T02:48:06.984Z,99493.06
2022-08-05T02:50:43.513Z,99485.34
2022-08-05T02:53:16.146Z,99485.84
2022-08-05T02:55:53.983Z,99481.84
2022-08-05T02:58:22.246Z,99487.63
2022-08-05T03:00:49.381Z,99484.88
2022-08-05T03:03:20.178Z,99488.63
2022-08-05T03:06:55.671Z,99492.94
2022-08-05T03:08:42.654Z,99500.31
2022-08-05T03:11:53.837Z,99484.50
2022-08-05T03:14:13.563Z,99493.56
2022-08-05T03:16:40.616Z,99491.63
2022-08-05T03:19:17.041Z,99488.00
2022-08-05T03:21:54.059Z,99489.81
2022-08-05T03:24:26.871Z,99486.81
2022-08-05T03:26:57.222Z,99479.31
2022-08-05T03:29:24.189Z,99458.59
2022-08-05T03:32:11.496Z,99471.38
2022-08-05T03:34:38.161Z,99459.91
2022-08-05T03:37:06.676Z,99456.53
2022-08-05T03:39:38.311Z,99442.91
2022-08-05T03:42:20.188Z,99454.03
2022-08-05T03:44:46.795Z,99461.47
2022-08-05T03:47:14.194Z,99457.53
2022-08-05T03:49:51.853Z,99451.72
2022-08-05T03:52:50.492Z,99461.72
2022-08-05T03:56:04.041Z,99413.78
2022-08-05T03:58:05.753Z,99446.53
2022-08-05T04:00:32.669Z,99437.34
2022-08-05T04:03:02.794Z,99442.16
2022-08-05T04:05:34.553Z,99436.97
2022-08-05T04:08:29.946Z,99419.88
2022-08-05T04:10:54.733Z,99414.94
2022-08-05T04:13:21.891Z,99406.44
2022-08-05T04:16:03.233Z,99420.75
2022-08-05T04:18:32.289Z,99411.09
2022-08-05T04:21:04.091Z,99406.44
2022-08-05T04:24:04.801Z,99424.50
2022-08-05T04:26:17.650Z,99425.09
2022-08-05T04:28:51.790Z,99430.88
2022-08-05T04:31:19.742Z,99439.06
2022-08-05T04:34:18.238Z,99434.00
2022-08-05T04:36:45.388Z,99439.28
2022-08-05T04:39:13.259Z,99438.13
2022-08-05T04:41:40.037Z,99442.78
2022-08-05T04:44:09.398Z,99450.25
2022-08-05T04:46:37.737Z,99442.28
2022-08-05T04:49:05.590Z,99448.94
2022-08-05T04:51:39.055Z,99447.47
2022-08-05T04:54:05.817Z,99456.41
2022-08-05T04:56:37.230Z,99448.94
2022-08-05T04:59:21.722Z,99452.69
2022-08-05T05:02:07.773Z,99456.91
2022-08-05T05:04:43.877Z,99450.84
2022-08-05T05:07:15.892Z,99440.16
2022-08-05T05:09:44.444Z,99431.84
2022-08-05T05:12:11.567Z,99432.19
2022-08-05T05:14:38.350Z,99448.81
2022-08-05T05:17:19.884Z,99451.25
2022-08-05T05:19:50.343Z,99471.09
2022-08-05T05:22:24.137Z,99467.16
2022-08-05T05:24:57.573Z,99473.03
2022-08-05T05:27:44.866Z,99456.50
2022-08-05T05:30:29.664Z,99451.44
2022-08-05T05:33:00.187Z,99458.59
2022-08-05T05:35:31.503Z,99467.66
2022-08-05T05:38:09.523Z,99450.19
2022-08-05T05:40:43.786Z,99430.19
2022-08-05T05:43:27.838Z,99440.78
2022-08-05T05:46:03.499Z,99437.44
2022-08-05T05:48:31.774Z,99427.91
2022-08-05T05:50:58.341Z,99429.69
2022-08-05T05:53:24.922Z,99419.75
2022-08-05T05:56:00.728Z,99412.44
2022-08-05T05:58:30.130Z,99418.56
2022-08-05T06:01:02.451Z,99417.38
2022-08-05T06:04:01.664Z,99410.81
2022-08-05T06:06:27.996Z,99420.44
2022-08-05T06:08:58.473Z,99420.06
2022-08-05T06:11:26.045Z,99421.53
2022-08-05T06:13:55.421Z,99416.34
2022-08-05T06:16:30.494Z,99425.88
2022-08-05T06:19:05.879Z,99423.09
2022-08-05T06:21:36.568Z,99421.78
2022-08-05T06:24:11.365Z,99421.28
2022-08-05T06:26:52.108Z,99416.19
2022-08-05T06:29:25.024Z,99410.06
2022-08-05T06:32:20.886Z,99384.41
2022-08-05T06:34:48.390Z,99373.13
2022-08-05T06:37:56.114Z,99345.06
2022-08-05T06:40:07.603Z,99337.47
2022-08-05T06:42:34.289Z,99354.25
2022-08-05T06:45:08.254Z,99335.91
2022-08-05T06:48:47.377Z,99362.44
2022-08-05T06:50:22.627Z,99383.16
2022-08-05T06:52:58.706Z,99361.69
2022-08-05T06:55:36.134Z,99361.56
2022-08-05T06:58:29.916Z,99340.81
2022-08-05T07:00:50.207Z,99375.25
2022-08-05T07:03:17.050Z,99381.63
2022-08-05T07:05:44.179Z,99401.81
2022-08-05T07:08:13.471Z,99388.22
2022-08-05T07:10:52.304Z,99403.41
2022-08-05T07:13:58.095Z,99400.28
2022-08-05T07:18:08.591Z,99409.22
2022-08-05T07:22:28.922Z,99418.31
2022-08-05T07:25:24.011Z,99408.22
2022-08-05T07:27:57.970Z,99420.88
2022-08-05T07:30:39.040Z,99399.97
2022-08-05T07:33:09.522Z,99400.69
2022-08-05T07:35:55.926Z,99380.25
2022-08-05T07:38:33.677Z,99371.84
2022-08-05T07:42:09.594Z,99379.25
2022-08-05T07:43:57.971Z,99390.34
2022-08-05T07:46:29.526Z,99397.63
2022-08-05T07:49:02.247Z,99395.66
2022-08-05T07:51:48.901Z,99372.53
2022-08-05T07:54:30.304Z,99354.47
2022-08-05T07:57:02.367Z,99364.91
2022-08-05T07:59:43.424Z,99357.28
2022-08-05T08:02:17.604Z,99359.84
2022-08-05T08:04:49.490Z,99367.78
2022-08-05T08:07:18.568Z,99372.47
2022-08-05T08:09:50.309Z,99366.28
2022-08-05T08:12:35.157Z,99373.03
2022-08-05T08:15:14.270Z,99354.69
2022-08-05T08:17:46.197Z,99368.78
2022-08-05T08:20:43.838Z,99382.78
2022-08-05T08:23:20.972Z,99387.72
2022-08-05T08:26:00.458Z,99394.34
2022-08-05T08:28:36.566Z,99383.66
2022-08-05T08:31:04.952Z,99381.75
2022-08-05T08:33:38.052Z,99378.47
2022-08-05T08:36:38.363Z,99367.78
2022-08-05T08:38:55.601Z,99373.78
2022-08-05T08:41:26.118Z,99372.44
2022-08-05T08:45:20.620Z,99390.22
2022-08-05T08:46:58.133Z,99398.16
2022-08-05T08:50:22.689Z,99401.06
2022-08-05T08:52:16.989Z,99374.59
2022-08-05T08:54:44.388Z,99399.41
2022-08-05T08:57:13.382Z,99407.25
2022-08-05T08:59:41.686Z,99420.34
2022-08-05T09:02:08.867Z,99408.63
2022-08-05T09:04:58.146Z,99426.19
2022-08-05T09:07:28.575Z,99429.00
2022-08-05T09:09:56.218Z,99423.72
2022-08-05T09:12:27.446Z,99416.59
2022-08-05T09:14:59.527Z,99431.63
2022-08-05T09:17:42.618Z,99413.41
2022-08-05T09:20:13.158Z,99441.66
2022-08-05T09:23:18.862Z,99433.59
2022-08-05T09:26:03.068Z,99418.09
2022-08-05T09:28:33.476Z,99408.00
2022-08-05T09:32:38.640Z,99405.63
2022-08-05T09:34:04.170Z,99413.25
2022-08-05T09:36:55.667Z,99419.13
2022-08-05T09:39:41.880Z,99414.88
2022-08-05T09:42:23.048Z,99421.13
2022-08-05T09:44:52.723Z,99419.44
2022-08-05T09:47:25.663Z,99427.69
2022-08-05T09:50:00.638Z,99415.94
2022-08-05T09:52:35.957Z,99432.72
2022-08-05T09:55:55.053Z,99424.84
2022-08-05T09:57:54.372Z,99428.91
2022-08-05T10:00:25.944Z,99433.06
2022-08-05T10:02:58.699Z,99423.66
2022-08-05T10:05:27.695Z,99429.66
2022-08-05T10:08:34.677Z,99442.88
2022-08-05T10:10:50.208Z,99437.38
2022-08-05T10:13:45.661Z,99445.16
2022-08-05T10:16:33.907Z,99438.69
2022-08-05T10:19:08.472Z,99433.47
2022-08-05T10:21:39.944Z,99441.03
2022-08-05T10:24:13.447Z,99440.94
2022-08-05T10:26:51.370Z,99446.06
2022-08-05T10:29:23.430Z,99444.84
2022-08-05T10:32:54.150Z,99443.44
2022-08-05T10:34:37.705Z,99454.97
2022-08-05T10:37:08.068Z,99457.28
2022-08-05T10:40:03.748Z,99461.72
2022-08-05T10:42:33.437Z,99437.38
2022-08-05T10:45:01.756Z,99438.38
2022-08-05T10:47:33.349Z,99439.66
2022-08-05T10:50:31.900Z,99439.13
2022-08-05T10:53:00.336Z,99437.47
2022-08-05T10:55:27.566Z,99441.94
2022-08-05T10:58:08.650Z,99436.53
2022-08-05T11:00:35.747Z,99431.16
2022-08-05T11:03:25.145Z,99429.78
2022-08-05T11:06:15.107Z,99416.81
2022-08-05T11:09:17.000Z,99424.03
2022-08-05T11:11:53.337Z,99417.09
2022-08-05T11:14:57.570Z,99426.13
2022-08-05T11:17:57.778Z,99421.94
2022-08-05T11:20:45.132Z,99408.50
2022-08-05T11:24:04.182Z,99418.97
2022-08-05T11:26:28.771Z,99393.00
2022-08-05T11:29:06.690Z,99399.06
2022-08-05T11:31:54.435Z,99395.53
2022-08-05T11:34:38.033Z,99417.41
2022-08-05T11:39:50.415Z,99398.09
2022-08-05T11:42:28.112Z,99386.16
2022-08-05T11:45:02.595Z,99404.44
2022-08-05T11:47:48.245Z,99400.00
2022-08-05T11:50:17.278Z,99403.91
2022-08-05T11:52:48.816Z,99409.88
2022-08-05T11:55:16.960Z,99401.59
2022-08-05T11:58:09.388Z,99415.66
2022-08-05T12:00:37.858Z,99404.50
2022-08-05T12:03:24.084Z,99411.19
2022-08-05T12:06:06.624Z,99405.00
2022-08-05T12:08:52.933Z,99408.47
2022-08-05T12:11:39.864Z,99385.13
2022-08-05T12:14:10.658Z,99372.53
2022-08-05T12:16:45.499Z,99385.47
2022-08-05T12:20:16.702Z,99389.88
2022-08-05T12:22:01.228Z,99382.22
2022-08-05T12:24:28.014Z,99406.94
2022-08-05T12:26:54.757Z,99403.25
2022-08-05T12:29:26.674Z,99399.81
2022-08-05T12:31:54.323Z,99394.41
2022-08-05T12:34:31.496Z,99386.53
2022-08-05T12:37:01.299Z,99383.28
2022-08-05T12:39:34.759Z,99372.97
2022-08-05T12:42:14.705Z,99370.03
2022-08-05T12:44:43.150Z,99366.59
2022-08-05T12:47:12.443Z,99373.53
2022-08-05T12:50:04.492Z,99363.84
2022-08-05T12:52:39.014Z,99360.41
2022-08-05T12:55:33.054Z,99375.47
2022-08-05T12:58:49.001Z,99366.97
2022-08-05T13:02:03.769Z,99366.06
2022-08-05T13:03:38.915Z,99372.13
2022-08-05T13:06:10.441Z,99370.19
2022-08-05T13:08:38.810Z,99357.25
2022-08-05T13:11:07.841Z,99362.16
2022-08-05T13:14:06.216Z,99360.59
2022-08-05T13:16:27.798Z,99358.50
2022-08-05T13:18:58.639Z,99363.41
2022-08-05T13:21:28.168Z,99360.25
2022-08-05T13:24:04.887Z,99347.19
2022-08-05T13:26:31.580Z,99343.03
2022-08-05T13:28:59.331Z,99345.09
2022-08-05T13:32:02.933Z,99338.69
2022-08-05T13:34:23.190Z,99342.78
2022-08-05T13:36:52.726Z,99333.44
2022-08-05T13:39:24.407Z,99347.28
2022-08-05T13:42:06.295Z,99329.69
2022-08-05T13:44:32.918Z,99340.97
2022-08-05T13:47:08.328Z,99347.84
2022-08-05T13:49:35.886Z,99332.03
2022-08-05T13:52:17.570Z,99350.44
2022-08-05T13:54:44.456Z,99345.97
2022-08-05T13:57:20.756Z,99340.72
2022-08-05T13:59:59.433Z,99338.94
2022-08-05T14:02:29.789Z,99333.56
2022-08-05T14:05:15.357Z,99336.06
2022-08-05T14:08:00.058Z,99330.41
2022-08-05T14:10:34.812Z,99342.13
2022-08-05T14:13:02.843Z,99343.97
2022-08-05T14:16:07.160Z,99350.25
2022-08-05T14:18:18.727Z,99345.41
2022-08-05T14:20:54.856Z,99342.13
2022-08-05T14:23:25.208Z,99341.94
2022-08-05T14:25:54.542Z,99339.97
2022-08-05T14:28:26.140Z,99345.41
2022-08-05T14:30:53.538Z,99338.41
2022-08-05T14:33:23.128Z,99343.38
2022-08-05T14:35:51.840Z,99342.34
2022-08-05T14:38:33.274Z,99340.09
2022-08-05T14:41:06.357Z,99343.53
2022-08-05T14:43:53.969Z,99328.72
2022-08-05T14:46:29.094Z,99336.03
2022-08-05T14:49:06.979Z,99347.56
2022-08-05T14:51:36.285Z,99336.91
2022-08-05T14:54:26.463Z,99323.88
2022-08-05T14:56:51.253Z,99313.38
2022-08-05T14:59:21.799Z,99315.09
2022-08-05T15:01:53.803Z,99309.78
2022-08-05T15:04:22.534Z,99307.13
2022-08-05T15:06:52.684Z,99305.97
2022-08-05T15:09:51.864Z,99310.75
2022-08-05T15:12:08.993Z,99314.75
2022-08-05T15:14:41.447Z,99311.59
2022-08-05T15:17:47.231Z,99313.88
2022-08-05T15:20:01.711Z,99308.22
2022-08-05T15:22:28.759Z,99322.34
2022-08-05T15:24:59.177Z,99316.69
2022-08-05T15:27:26.131Z,99333.69
2022-08-05T15:29:59.133Z,99331.00
2022-08-05T15:32:27.266Z,99322.69
2022-08-05T15:34:56.003Z,99323.34
2022-08-05T15:38:32.952Z,99314.78
2022-08-05T15:41:02.781Z,99325.63
2022-08-05T15:43:09.062Z,99319.66
2022-08-05T15:45:44.067Z,99308.28
2022-08-05T15:48:14.498Z,99312.97
2022-08-05T15:50:43.887Z,99315.41
2022-08-05T15:53:12.983Z,99331.06
2022-08-05T15:56:04.216Z,99333.09
2022-08-05T15:58:29.822Z,99340.63
2022-08-05T16:01:11.874Z,99328.84
2022-08-05T16:03:48.613Z,99341.72
2022-08-05T16:06:20.386Z,99341.78
2022-08-05T16:08:50.969Z,99352.97
2022-08-05T16:11:20.905Z,99354.19
2022-08-05T16:14:07.215Z,99354.88
2022-08-05T16:16:36.278Z,99360.91
2022-08-05T16:19:03.662Z,99362.06
2022-08-05T16:21:59.300Z,99339.28
2022-08-05T16:24:40.301Z,99347.16
2022-08-05T16:27:04.363Z,99359.34
2022-08-05T16:29:37.551Z,99353.00
2022-08-05T16:32:09.806Z,99344.59
2022-08-05T16:34:37.128Z,99341.94
2022-08-05T16:38:02.721Z,99336.56
2022-08-05T16:40:05.014Z,99349.31
2022-08-05T16:42:34.562Z,99348.97
2022-08-05T16:45:01.761Z,99349.50
2022-08-05T16:47:40.877Z,99367.06
2022-08-05T16:50:19.355Z,99350.28
2022-08-05T16:52:46.296Z,99383.59
2022-08-05T16:55:12.971Z,99377.53
2022-08-05T16:57:52.919Z,99383.41
2022-08-05T17:00:34.480Z,99358.13
2022-08-05T17:03:19.515Z,99383.41
2022-08-05T17:05:51.522Z,99392.09
2022-08-05T17:08:36.763Z,99396.47
2022-08-05T17:11:08.895Z,99390.44
2022-08-05T17:13:41.454Z,99390.09
2022-08-05T17:16:28.080Z,99382.34
2022-08-05T17:18:55.625Z,99378.50
2022-08-05T17:21:23.784Z,99370.56
2022-08-05T17:24:04.456Z,99376.03
2022-08-05T17:26:35.512Z,99382.22
2022-08-05T17:29:07.349Z,99403.22
2022-08-05T17:31:56.474Z,99401.69
2022-08-05T17:34:30.071Z,99421.56
2022-08-05T17:36:59.930Z,99412.66
2022-08-05T17:39:33.175Z,99415.81
2022-08-05T17:42:20.212Z,99414.88
2022-08-05T17:44:50.710Z,99430.41
2022-08-05T17:47:22.249Z,99431.72
2022-08-05T17:49:59.510Z,99435.34
2022-08-05T17:52:27.703Z,99426.69
2022-08-05T17:54:54.498Z,99435.34
2022-08-05T17:57:22.064Z,99399.56
2022-08-05T18:00:03.611Z,99439.66
2022-08-05T18:02:31.875Z,99431.50
2022-08-05T18:04:58.953Z,99440.56
2022-08-05T18:07:32.942Z,99436.00
2022-08-05T18:10:11.125Z,99447.38
2022-08-05T18:12:38.770Z,99451.03
2022-08-05T18:15:06.367Z,99441.41
2022-08-05T18:17:58.959Z,99438.22
2022-08-05T18:20:29.252Z,99440.72
2022-08-05T18:23:08.730Z,99440.19
2022-08-05T18:25:38.909Z,99428.66
2022-08-05T18:28:06.385Z,99418.91
2022-08-05T18:30:34.160Z,99418.16
2022-08-05T18:33:01.475Z,99407.94
2022-08-05T18:36:01.350Z,99401.38
2022-08-05T18:38:19.470Z,99385.56
2022-08-05T18:41:56.735Z,99375.63
2022-08-05T18:43:43.210Z,99386.38
2022-08-05T18:46:20.131Z,99379.69
2022-08-05T18:48:53.901Z,99397.84
2022-08-05T18:52:04.668Z,99399.47
2022-08-05T18:54:31.407Z,99410.06
2022-08-05T18:57:01.747Z,99403.66
2022-08-05T18:59:42.941Z,99411.50
2022-08-05T19:02:37.996Z,99421.00
2022-08-05T19:06:06.023Z,99430.91
2022-08-05T19:07:58.268Z,99419.56
2022-08-05T19:10:26.476Z,99442.69
2022-08-05T19:12:54.946Z,99437.66
2022-08-05T19:15:57.103Z,99439.59
2022-08-05T19:18:13.440Z,99433.59
2022-08-05T19:20:48.756Z,99429.34
2022-08-05T19:23:22.657Z,99412.66
2022-08-05T19:26:03.138Z,99421.81
2022-08-05T19:28:33.765Z,99415.63
2022-08-05T19:31:01.302Z,99416.63
2022-08-05T19:33:36.362Z,99411.03
2022-08-05T19:36:06.014Z,99416.34
2022-08-05T19:38:34.004Z,99407.47
2022-08-05T19:41:02.455Z,99397.00
2022-08-05T19:44:06.227Z,99394.63
2022-08-05T19:46:30.278Z,99407.53
2022-08-05T19:49:03.491Z,99406.00
2022-08-05T19:52:05.794Z,99408.97
2022-08-05T19:54:21.975Z,99418.09
2022-08-05T19:56:58.077Z,99417.41
2022-08-05T19:59:55.269Z,99416.03
2022-08-05T20:02:12.799Z,99426.25
2022-08-05T20:04:43.250Z,99426.25
2022-08-05T20:07:13.259Z,99433.72
2022-08-05T20:09:53.695Z,99449.88
2022-08-05T20:12:23.078Z,99422.13
2022-08-05T20:14:52.298Z,99451.28
2022-08-05T20:17:19.362Z,99445.53
2022-08-05T20:19:50.669Z,99459.84
2022-08-05T20:22:24.218Z,99447.13
2022-08-05T20:24:53.185Z,99447.00
2022-08-05T20:27:21.168Z,99456.41
2022-08-05T20:29:57.526Z,99446.88
2022-08-05T20:32:26.480Z,99448.56
2022-08-05T20:34:53.507Z,99457.97
2022-08-05T20:38:04.658Z,99460.63
2022-08-05T20:40:08.014Z,99464.84
2022-08-05T20:42:37.261Z,99456.72
2022-08-05T20:45:05.340Z,99463.00
2022-08-05T20:47:33.257Z,99477.50
2022-08-05T20:50:02.201Z,99472.88
2022-08-05T20:52:29.480Z,99467.41
2022-08-05T20:55:15.809Z,99432.06
2022-08-05T20:57:44.653Z,99465.84
2022-08-05T21:00:40.351Z,99480.03
2022-08-05T21:03:06.069Z,99475.00
2022-08-05T21:05:47.806Z,99468.09
2022-08-05T21:08:21.284Z,99481.56
2022-08-05T21:10:59.960Z,99476.81
2022-08-05T21:13:47.975Z,99468.53
2022-08-05T21:16:14.107Z,99468.53
2022-08-05T21:18:44.920Z,99461.69
2022-08-05T21:21:12.042Z,99435.31
2022-08-05T21:23:38.883Z,99458.28
2022-08-05T21:26:08.262Z,99451.16
2022-08-05T21:28:40.202Z,99450.31
2022-08-05T21:31:14.871Z,99451.16
2022-08-05T21:33:43.330Z,99448.78
2022-08-05T21:36:27.880Z,99455.50
2022-08-05T21:38:57.070Z,99455.63
2022-08-05T21:41:26.138Z,99452.41
2022-08-05T21:44:01.594Z,99453.38
2022-08-05T21:46:30.169Z,99458.44
2022-08-05T21:48:57.302Z,99437.13
2022-08-05T21:52:21.598Z,99451.59
2022-08-05T21:54:13.315Z,99459.00
2022-08-05T21:56:44.259Z,99456.78
2022-08-05T21:59:22.462Z,99459.84
2022-08-05T22:01:51.573Z,99448.78
2022-08-05T22:04:21.339Z,99446.94
2022-08-05T22:06:52.358Z,99433.63
2022-08-05T22:09:21.495Z,99442.00
2022-08-05T22:11:48.907Z,99437.53
2022-08-05T22:14:35.639Z,99440.78
2022-08-05T22:17:06.623Z,99434.59
2022-08-05T22:20:03.321Z,99434.88
2022-08-05T22:22:27.640Z,99433.34
2022-08-05T22:25:18.014Z,99421.44
2022-08-05T22:28:11.039Z,99426.72
2022-08-05T22:30:44.217Z,99435.19
2022-08-05T22:33:56.824Z,99427.16
2022-08-05T22:36:15.166Z,99431.25
2022-08-05T22:38:43.293Z,99428.31
2022-08-05T22:41:10.551Z,99440.34
2022-08-05T22:43:38.291Z,99433.63
2022-08-05T22:46:12.034Z,99441.78
2022-08-05T22:48:39.801Z,99442.06
2022-08-05T22:51:07.995Z,99428.06
2022-08-05T22:53:42.331Z,99441.22
2022-08-05T22:56:09.839Z,99445.28
2022-08-05T22:58:36.807Z,99447.78
2022-08-05T23:01:03.660Z,99452.84
2022-08-05T23:03:58.249Z,99448.34
2022-08-05T23:06:19.834Z,99441.63
2022-08-05T23:08:52.932Z,99455.78
2022-08-05T23:11:19.519Z,99458.72
2022-08-05T23:13:46.255Z,99445.28
2022-08-05T23:16:44.314Z,99454.81
2022-08-05T23:19:25.827Z,99433.78
2022-08-05T23:21:52.723Z,99455.09
2022-08-05T23:24:20.979Z,99448.91
2022-08-05T23:26:49.094Z,99449.16
2022-08-05T23:29:16.559Z,99457.16
2022-08-05T23:31:46.150Z,99443.56
2022-08-05T23:34:16.151Z,99456.47
2022-08-05T23:36:51.355Z,99454.47
2022-08-05T23:39:32.149Z,99448.47
2022-08-05T23:42:14.338Z,99453.66
2022-08-05T23:44:41.283Z,99464.31
2022-08-05T23:47:15.387Z,99457.41
2022-08-05T23:49:45.915Z,99452.50
2022-08-05T23:52:32.313Z,99451.09
2022-08-05T23:55:08.860Z,99460.91
2022-08-05T23:57:36.324Z,99440.97
